Anatife — FGE8389 — position and weather

sailwx.info

Track history (hours):
 
Tides and Currents Weather Stations Pressure Air Temp Water Temp Dewpoint Dewpoint Depression Visibility Wind Speed Wind Dir Waves Ship Positions

Anatife

Last reported at 2016-Jul-28 14:32 UTC. Time now 2016-Jul-28 20:23 UTC.
Position N 46°57' W 002°28'.

Length 41 m; draft 2.3 m.

Type: Tanker. MMSI: 227681520.

Date/timePositionNaut miles runAvg speedWind from/ knotsBaromVisibWave heightAir tempDewpointWater temp
2016-Jul-28 14:32N 46°57' W 002°28'9 9.3
2016-Jul-28 13:32N 47°06' W 002°24'8 8.5
2016-Jul-28 12:33N 47°13' W 002°17'8 8.4
2016-Jul-28 11:33N 47°18' W 002°07'2 1.7
2016-Jul-28 10:33N 47°18' W 002°05'0 0.0
2016-Jul-28 09:33N 47°18' W 002°05'0 0.0
2016-Jul-27 18:34N 47°18' W 002°05'0 0.0
2016-Jul-27 17:32N 47°18' W 002°05'0 0.0
2016-Jul-27 16:30N 47°18' W 002°05'0 0.0
2016-Jul-27 15:32N 47°18' W 002°05'0 0.0
2016-Jul-27 14:32N 47°18' W 002°05'0 0.0
2016-Jul-27 13:32N 47°18' W 002°05'0 0.0
2016-Jul-27 12:30N 47°18' W 002°05'0 0.0
2016-Jul-27 11:33N 47°18' W 002°05'0 0.0
2016-Jul-27 10:33N 47°18' W 002°05'0 0.0
2016-Jul-27 09:33N 47°18' W 002°05'0 0.0
2016-Jul-27 08:33N 47°18' W 002°05'0 0.0
2016-Jul-27 07:33N 47°18' W 002°05'0 0.0
2016-Jul-27 06:33N 47°18' W 002°05'0 0.0
2016-Jul-27 05:33N 47°18' W 002°05'0 0.0
2016-Jul-27 04:33N 47°18' W 002°05'0 0.0
2016-Jul-27 03:33N 47°18' W 002°05'0 0.0
2016-Jul-27 02:33N 47°18' W 002°05'0 0.0
2016-Jul-27 01:33N 47°18' W 002°05'0 0.0
2016-Jul-27 00:33N 47°18' W 002°05'4 3.7
2016-Jul-26 23:33N 47°17' W 002°10'8 7.7
2016-Jul-26 22:33N 47°12' W 002°19'9 9.3
2016-Jul-26 21:33N 47°14' W 002°32'10 9.6
2016-Jul-26 20:33N 47°16' W 002°46'9 9.5
2016-Jul-26 19:33N 47°19' W 002°59'7 7.1
2016-Jul-26 18:33N 47°21' W 003°09'0 0.0
2016-Jul-26 17:33N 47°21' W 003°09'0 0.0
2016-Jul-26 16:33N 47°21' W 003°09'0 0.0
2016-Jul-26 15:33N 47°21' W 003°09'0 0.0
2016-Jul-26 14:27N 47°21' W 003°09'0 0.0
2016-Jul-26 13:33N 47°21' W 003°09'0 0.0
2016-Jul-26 12:33N 47°21' W 003°09'0 0.0
2016-Jul-26 11:33N 47°21' W 003°09'0 0.0
2016-Jul-26 10:33N 47°21' W 003°09'0 0.0
2016-Jul-26 09:33N 47°21' W 003°09'0 0.1
2016-Jul-26 08:33N 47°21' W 003°09'0 0.5
2016-Jul-26 07:33N 47°21' W 003°09'6 6.5
2016-Jul-26 06:33N 47°19' W 002°60'8 8.3
2016-Jul-26 05:33N 47°16' W 002°48'8 8.1
2016-Jul-26 04:33N 47°14' W 002°37'8 8.0
2016-Jul-26 03:33N 47°13' W 002°25'8 7.7
2016-Jul-26 02:33N 47°15' W 002°14'7 7.1
2016-Jul-26 01:33N 47°18' W 002°05'0 0.0
2016-Jul-26 00:33N 47°18' W 002°05'0 0.0
2016-Jul-25 23:33N 47°18' W 002°05'0 0.0
2016-Jul-25 22:34N 47°18' W 002°05'0 0.0
2016-Jul-25 21:33N 47°18' W 002°05'0 0.0
2016-Jul-25 20:33N 47°18' W 002°05'0 0.0
2016-Jul-25 19:33N 47°18' W 002°05'0 0.0
2016-Jul-25 18:33N 47°18' W 002°05'0 0.0
2016-Jul-25 17:32N 47°18' W 002°05'0 0.0
2016-Jul-25 16:33N 47°18' W 002°05'0 0.0
2016-Jul-25 15:32N 47°18' W 002°05'0 0.0
2016-Jul-25 14:33N 47°18' W 002°05'0 0.0
2016-Jul-25 13:33N 47°18' W 002°05'0 0.0
2016-Jul-25 12:33N 47°18' W 002°05'0 0.0
2016-Jul-25 11:32N 47°18' W 002°05'0 0.0
2016-Jul-25 10:33N 47°18' W 002°05'0 0.0
2016-Jul-25 09:33N 47°18' W 002°05'0 0.0
2016-Jul-25 08:33N 47°18' W 002°05'0 0.0
2016-Jul-25 07:33N 47°18' W 002°05'0 0.0
2016-Jul-25 06:33N 47°18' W 002°05'0 0.0
2016-Jul-25 05:33N 47°18' W 002°05'0 0.0
2016-Jul-25 04:33N 47°18' W 002°05'0 0.0
2016-Jul-25 03:34N 47°18' W 002°05'0 0.0
2016-Jul-25 02:33N 47°18' W 002°05'0 0.0
2016-Jul-25 01:34N 47°18' W 002°05'0 0.0
2016-Jul-25 00:33N 47°18' W 002°05'0 0.0
2016-Jul-24 23:33N 47°18' W 002°05'0 0.0
2016-Jul-24 22:33N 47°18' W 002°05'0 0.0
2016-Jul-24 21:33N 47°18' W 002°05'0 0.0
2016-Jul-24 20:33N 47°18' W 002°05'0 0.0
2016-Jul-24 19:33N 47°18' W 002°05'0 0.0
2016-Jul-24 18:33N 47°18' W 002°05'0 0.0
2016-Jul-24 17:33N 47°18' W 002°05'0 0.0
2016-Jul-24 16:33N 47°18' W 002°05'0 0.0
2016-Jul-24 15:33N 47°18' W 002°05'0 0.0
2016-Jul-24 14:33N 47°18' W 002°05'0 0.0
2016-Jul-24 13:33N 47°18' W 002°05'0 0.0
2016-Jul-24 12:33N 47°18' W 002°05'0 0.0
2016-Jul-24 11:33N 47°18' W 002°05'0 0.0
2016-Jul-24 10:33N 47°18' W 002°05'0 0.0
2016-Jul-24 09:33N 47°18' W 002°05'0 0.0
2016-Jul-24 08:33N 47°18' W 002°05'0 0.0
2016-Jul-24 07:33N 47°18' W 002°05'0 0.0
2016-Jul-24 06:33N 47°18' W 002°05'0 0.0
2016-Jul-24 05:33N 47°18' W 002°05'0 0.0
2016-Jul-24 04:33N 47°18' W 002°05'0 0.0
2016-Jul-24 03:33N 47°18' W 002°05'0 0.0
2016-Jul-24 02:33N 47°18' W 002°05'0 0.0
2016-Jul-24 01:34N 47°18' W 002°05'0 0.0
2016-Jul-24 00:34N 47°18' W 002°05'0 0.0
2016-Jul-23 23:33N 47°18' W 002°05'0 0.0
2016-Jul-23 22:33N 47°18' W 002°05'0 0.0
2016-Jul-23 21:33N 47°18' W 002°05'0 0.0
2016-Jul-23 20:33N 47°18' W 002°05'0 0.0
2016-Jul-23 19:33N 47°18' W 002°05'0 0.0
2016-Jul-23 18:33N 47°18' W 002°05'0 0.0
2016-Jul-23 17:33N 47°18' W 002°05'0 0.0
2016-Jul-23 16:33N 47°18' W 002°05'0 0.0
2016-Jul-23 15:34N 47°18' W 002°05'0 0.0
2016-Jul-23 14:33N 47°18' W 002°05'0 0.0
2016-Jul-23 13:34N 47°18' W 002°05'0 0.0
2016-Jul-23 12:33N 47°18' W 002°05'0 0.0
2016-Jul-23 11:33N 47°18' W 002°05'0 0.0
2016-Jul-23 10:33N 47°18' W 002°05'0 0.0
2016-Jul-23 09:33N 47°18' W 002°05'0 0.0
2016-Jul-23 08:33N 47°18' W 002°05'0 0.0
2016-Jul-23 07:33N 47°18' W 002°05'0 0.0
2016-Jul-23 06:33N 47°18' W 002°05'0 0.0
2016-Jul-23 04:33N 47°18' W 002°05'0 0.0
2016-Jul-23 03:33N 47°18' W 002°05'0 0.0
2016-Jul-23 02:33N 47°18' W 002°05'0 0.0
2016-Jul-23 01:33N 47°18' W 002°05'0 0.0
2016-Jul-23 00:33N 47°18' W 002°05'0 0.0
2016-Jul-22 23:33N 47°18' W 002°05'0 0.0
2016-Jul-22 22:33N 47°18' W 002°05'0 0.0
2016-Jul-22 21:34N 47°18' W 002°05'0 0.0
2016-Jul-22 20:33N 47°18' W 002°05'0 0.0
2016-Jul-22 19:33N 47°18' W 002°05'0 0.0
2016-Jul-22 18:33N 47°18' W 002°05'0 0.0
2016-Jul-22 17:33N 47°18' W 002°05'0 0.0
2016-Jul-22 16:33N 47°18' W 002°05'0 0.0
2016-Jul-22 15:33N 47°18' W 002°05'0 0.0
2016-Jul-22 14:33N 47°18' W 002°05'0 0.0
2016-Jul-22 13:33N 47°18' W 002°05'0 0.0
2016-Jul-22 12:32N 47°18' W 002°05'0 0.0
2016-Jul-22 11:33N 47°18' W 002°05'0 0.0
2016-Jul-22 10:33N 47°18' W 002°05'0 0.0
2016-Jul-22 09:30N 47°18' W 002°05'0 0.0
2016-Jul-22 08:33N 47°18' W 002°05'0 0.0
2016-Jul-22 07:33N 47°18' W 002°05'0 0.0
2016-Jul-22 05:33N 47°18' W 002°05'0 0.0
2016-Jul-22 04:33N 47°18' W 002°05'0 0.0
2016-Jul-22 03:33N 47°18' W 002°05'0 0.0
2016-Jul-22 02:33N 47°18' W 002°05'0 0.0
2016-Jul-22 01:33N 47°18' W 002°05'0 0.0
2016-Jul-22 00:33N 47°18' W 002°05'0 0.0
2016-Jul-21 23:33N 47°18' W 002°05'0 0.0
2016-Jul-21 22:33N 47°18' W 002°05'0 0.0
2016-Jul-21 21:33N 47°18' W 002°05'0 0.0
2016-Jul-21 20:33N 47°18' W 002°05'0 0.0
2016-Jul-21 19:33N 47°18' W 002°05'0 0.0
2016-Jul-21 18:33N 47°18' W 002°05'0 0.0
2016-Jul-21 17:33N 47°18' W 002°05'0 0.0
2016-Jul-21 16:33N 47°18' W 002°05'0 0.0
2016-Jul-21 15:33N 47°18' W 002°05'0 0.0
2016-Jul-21 14:33N 47°18' W 002°05'0 0.0
2016-Jul-21 13:33N 47°18' W 002°05'0 0.0
2016-Jul-21 12:33N 47°18' W 002°05'0 0.0
2016-Jul-21 11:32N 47°18' W 002°05'0 0.0
2016-Jul-21 10:29N 47°18' W 002°05'0 0.0
2016-Jul-21 09:32N 47°18' W 002°05'0 0.0
2016-Jul-21 08:34N 47°18' W 002°05'0 0.0
2016-Jul-21 07:33N 47°18' W 002°05'0 0.0
2016-Jul-21 06:33N 47°18' W 002°05'0 0.0
2016-Jul-21 05:33N 47°18' W 002°05'0 0.0
2016-Jul-21 04:33N 47°18' W 002°05'0 0.0
2016-Jul-21 03:33N 47°18' W 002°05'0 0.0
2016-Jul-21 02:33N 47°18' W 002°05'0 0.0
2016-Jul-21 01:33N 47°18' W 002°05'0 0.0
2016-Jul-21 00:33N 47°18' W 002°05'0 0.0
2016-Jul-20 23:33N 47°18' W 002°05'0 0.0
2016-Jul-20 22:33N 47°18' W 002°05'0 0.0
2016-Jul-20 21:33N 47°18' W 002°05'0 0.0
2016-Jul-20 20:32N 47°18' W 002°05'0 0.0
2016-Jul-20 19:32N 47°18' W 002°05'0 0.0
2016-Jul-20 18:32N 47°18' W 002°05'0 0.0
2016-Jul-20 17:32N 47°18' W 002°05'0 0.0
2016-Jul-20 16:33N 47°18' W 002°05'0 0.0
2016-Jul-20 15:33N 47°18' W 002°05'0 0.0
2016-Jul-20 14:31N 47°18' W 002°05'0 0.0
2016-Jul-20 13:33N 47°18' W 002°05'0 0.0
2016-Jul-20 12:33N 47°18' W 002°05'0 0.0
2016-Jul-20 11:33N 47°18' W 002°05'0 0.0
2016-Jul-20 10:32N 47°18' W 002°05'0 0.0
2016-Jul-20 09:33N 47°18' W 002°05'0 0.0
2016-Jul-20 08:33N 47°18' W 002°05'0 0.0
2016-Jul-20 07:33N 47°18' W 002°05'0 0.0
2016-Jul-20 06:34N 47°18' W 002°05'0 0.0
2016-Jul-20 05:33N 47°18' W 002°05'0 0.0
2016-Jul-20 04:33N 47°18' W 002°05'0 0.0
2016-Jul-20 03:33N 47°18' W 002°05'0 0.0
2016-Jul-20 02:33N 47°18' W 002°05'0 0.0
2016-Jul-20 01:34N 47°18' W 002°05'0 0.0
2016-Jul-20 00:33N 47°18' W 002°05'0 0.0
2016-Jul-19 23:33N 47°18' W 002°05'0 0.0
2016-Jul-19 22:33N 47°18' W 002°05'0 0.0
2016-Jul-19 21:33N 47°18' W 002°05'0 0.0
2016-Jul-19 20:33N 47°18' W 002°05'0 0.0
2016-Jul-19 19:33N 47°18' W 002°05'0 0.0
2016-Jul-19 18:33N 47°18' W 002°05'0 0.0
2016-Jul-19 17:33N 47°18' W 002°05'0 0.0
2016-Jul-19 16:33N 47°18' W 002°05'0 0.0
2016-Jul-19 15:33N 47°18' W 002°05'0 0.0
2016-Jul-19 14:33N 47°18' W 002°05'0 0.0
2016-Jul-19 13:33N 47°18' W 002°05'0 0.0
2016-Jul-19 12:30N 47°18' W 002°05'0 0.0
2016-Jul-19 11:32N 47°18' W 002°05'0 0.0
2016-Jul-19 10:33N 47°18' W 002°05'0 0.0
2016-Jul-19 09:33N 47°18' W 002°05'0 0.0
2016-Jul-19 08:33N 47°18' W 002°05'0 0.0
2016-Jul-19 07:33N 47°18' W 002°05'0 0.0
2016-Jul-19 04:33N 47°18' W 002°05'0 0.0
2016-Jul-19 03:34N 47°18' W 002°05'0 0.0
2016-Jul-19 02:33N 47°18' W 002°05'0 0.0
2016-Jul-19 01:34N 47°18' W 002°05'0 0.0
2016-Jul-19 00:33N 47°18' W 002°05'0 0.0
2016-Jul-18 23:33N 47°18' W 002°05'0 0.0
2016-Jul-18 22:33N 47°18' W 002°05'0 0.0
2016-Jul-18 21:33N 47°18' W 002°05'0 0.0
2016-Jul-18 20:33N 47°18' W 002°05'0 0.0
2016-Jul-18 19:33N 47°18' W 002°05'0 0.0
2016-Jul-18 18:33N 47°18' W 002°05'0 0.0
2016-Jul-18 17:33N 47°18' W 002°05'0 0.0
2016-Jul-18 16:33N 47°18' W 002°05'0 0.0
2016-Jul-18 15:31N 47°18' W 002°05'0 0.0
2016-Jul-18 14:33N 47°18' W 002°05'  
Track history (hours):
 
Tides and Currents Weather Stations Pressure Air Temp Water Temp Dewpoint Dewpoint Depression Visibility Wind Speed Wind Dir Waves Ship Positions

Anatife

Last reported at 2016-Jul-28 14:32 UTC. Time now 2016-Jul-28 20:23 UTC.
Position N 46°57' W 002°28'.

Length 41 m; draft 2.3 m.

Type: Tanker. MMSI: 227681520.

Date/timePositionNaut miles runAvg speedWind from/ knotsBaromVisibWave heightAir tempDewpointWater temp
2016-Jul-28 14:32N 46°57' W 002°28'9 9.3
2016-Jul-28 13:32N 47°06' W 002°24'8 8.5
2016-Jul-28 12:33N 47°13' W 002°17'8 8.4
2016-Jul-28 11:33N 47°18' W 002°07'2 1.7
2016-Jul-28 10:33N 47°18' W 002°05'0 0.0
2016-Jul-28 09:33N 47°18' W 002°05'0 0.0
2016-Jul-27 18:34N 47°18' W 002°05'0 0.0
2016-Jul-27 17:32N 47°18' W 002°05'0 0.0
2016-Jul-27 16:30N 47°18' W 002°05'0 0.0
2016-Jul-27 15:32N 47°18' W 002°05'0 0.0
2016-Jul-27 14:32N 47°18' W 002°05'0 0.0
2016-Jul-27 13:32N 47°18' W 002°05'0 0.0
2016-Jul-27 12:30N 47°18' W 002°05'0 0.0
2016-Jul-27 11:33N 47°18' W 002°05'0 0.0
2016-Jul-27 10:33N 47°18' W 002°05'0 0.0
2016-Jul-27 09:33N 47°18' W 002°05'0 0.0
2016-Jul-27 08:33N 47°18' W 002°05'0 0.0
2016-Jul-27 07:33N 47°18' W 002°05'0 0.0
2016-Jul-27 06:33N 47°18' W 002°05'0 0.0
2016-Jul-27 05:33N 47°18' W 002°05'0 0.0
2016-Jul-27 04:33N 47°18' W 002°05'0 0.0
2016-Jul-27 03:33N 47°18' W 002°05'0 0.0
2016-Jul-27 02:33N 47°18' W 002°05'0 0.0
2016-Jul-27 01:33N 47°18' W 002°05'0 0.0
2016-Jul-27 00:33N 47°18' W 002°05'4 3.7
2016-Jul-26 23:33N 47°17' W 002°10'8 7.7
2016-Jul-26 22:33N 47°12' W 002°19'9 9.3
2016-Jul-26 21:33N 47°14' W 002°32'10 9.6
2016-Jul-26 20:33N 47°16' W 002°46'9 9.5
2016-Jul-26 19:33N 47°19' W 002°59'7 7.1
2016-Jul-26 18:33N 47°21' W 003°09'0 0.0
2016-Jul-26 17:33N 47°21' W 003°09'0 0.0
2016-Jul-26 16:33N 47°21' W 003°09'0 0.0
2016-Jul-26 15:33N 47°21' W 003°09'0 0.0
2016-Jul-26 14:27N 47°21' W 003°09'0 0.0
2016-Jul-26 13:33N 47°21' W 003°09'0 0.0
2016-Jul-26 12:33N 47°21' W 003°09'0 0.0
2016-Jul-26 11:33N 47°21' W 003°09'0 0.0
2016-Jul-26 10:33N 47°21' W 003°09'0 0.0
2016-Jul-26 09:33N 47°21' W 003°09'0 0.1
2016-Jul-26 08:33N 47°21' W 003°09'0 0.5
2016-Jul-26 07:33N 47°21' W 003°09'6 6.5
2016-Jul-26 06:33N 47°19' W 002°60'8 8.3
2016-Jul-26 05:33N 47°16' W 002°48'8 8.1
2016-Jul-26 04:33N 47°14' W 002°37'8 8.0
2016-Jul-26 03:33N 47°13' W 002°25'8 7.7
2016-Jul-26 02:33N 47°15' W 002°14'7 7.1
2016-Jul-26 01:33N 47°18' W 002°05'0 0.0
2016-Jul-26 00:33N 47°18' W 002°05'0 0.0
2016-Jul-25 23:33N 47°18' W 002°05'0 0.0
2016-Jul-25 22:34N 47°18' W 002°05'0 0.0
2016-Jul-25 21:33N 47°18' W 002°05'0 0.0
2016-Jul-25 20:33N 47°18' W 002°05'0 0.0
2016-Jul-25 19:33N 47°18' W 002°05'0 0.0
2016-Jul-25 18:33N 47°18' W 002°05'0 0.0
2016-Jul-25 17:32N 47°18' W 002°05'0 0.0
2016-Jul-25 16:33N 47°18' W 002°05'0 0.0
2016-Jul-25 15:32N 47°18' W 002°05'0 0.0
2016-Jul-25 14:33N 47°18' W 002°05'0 0.0
2016-Jul-25 13:33N 47°18' W 002°05'0 0.0
2016-Jul-25 12:33N 47°18' W 002°05'0 0.0
2016-Jul-25 11:32N 47°18' W 002°05'0 0.0
2016-Jul-25 10:33N 47°18' W 002°05'0 0.0
2016-Jul-25 09:33N 47°18' W 002°05'0 0.0
2016-Jul-25 08:33N 47°18' W 002°05'0 0.0
2016-Jul-25 07:33N 47°18' W 002°05'0 0.0
2016-Jul-25 06:33N 47°18' W 002°05'0 0.0
2016-Jul-25 05:33N 47°18' W 002°05'0 0.0
2016-Jul-25 04:33N 47°18' W 002°05'0 0.0
2016-Jul-25 03:34N 47°18' W 002°05'0 0.0
2016-Jul-25 02:33N 47°18' W 002°05'0 0.0
2016-Jul-25 01:34N 47°18' W 002°05'0 0.0
2016-Jul-25 00:33N 47°18' W 002°05'0 0.0
2016-Jul-24 23:33N 47°18' W 002°05'0 0.0
2016-Jul-24 22:33N 47°18' W 002°05'0 0.0
2016-Jul-24 21:33N 47°18' W 002°05'0 0.0
2016-Jul-24 20:33N 47°18' W 002°05'0 0.0
2016-Jul-24 19:33N 47°18' W 002°05'0 0.0
2016-Jul-24 18:33N 47°18' W 002°05'0 0.0
2016-Jul-24 17:33N 47°18' W 002°05'0 0.0
2016-Jul-24 16:33N 47°18' W 002°05'0 0.0
2016-Jul-24 15:33N 47°18' W 002°05'0 0.0
2016-Jul-24 14:33N 47°18' W 002°05'0 0.0
2016-Jul-24 13:33N 47°18' W 002°05'0 0.0
2016-Jul-24 12:33N 47°18' W 002°05'0 0.0
2016-Jul-24 11:33N 47°18' W 002°05'0 0.0
2016-Jul-24 10:33N 47°18' W 002°05'0 0.0
2016-Jul-24 09:33N 47°18' W 002°05'0 0.0
2016-Jul-24 08:33N 47°18' W 002°05'0 0.0
2016-Jul-24 07:33N 47°18' W 002°05'0 0.0
2016-Jul-24 06:33N 47°18' W 002°05'0 0.0
2016-Jul-24 05:33N 47°18' W 002°05'0 0.0
2016-Jul-24 04:33N 47°18' W 002°05'0 0.0
2016-Jul-24 03:33N 47°18' W 002°05'0 0.0
2016-Jul-24 02:33N 47°18' W 002°05'0 0.0
2016-Jul-24 01:34N 47°18' W 002°05'0 0.0
2016-Jul-24 00:34N 47°18' W 002°05'0 0.0
2016-Jul-23 23:33N 47°18' W 002°05'0 0.0
2016-Jul-23 22:33N 47°18' W 002°05'0 0.0
2016-Jul-23 21:33N 47°18' W 002°05'0 0.0
2016-Jul-23 20:33N 47°18' W 002°05'0 0.0
2016-Jul-23 19:33N 47°18' W 002°05'0 0.0
2016-Jul-23 18:33N 47°18' W 002°05'0 0.0
2016-Jul-23 17:33N 47°18' W 002°05'0 0.0
2016-Jul-23 16:33N 47°18' W 002°05'0 0.0
2016-Jul-23 15:34N 47°18' W 002°05'0 0.0
2016-Jul-23 14:33N 47°18' W 002°05'0 0.0
2016-Jul-23 13:34N 47°18' W 002°05'0 0.0
2016-Jul-23 12:33N 47°18' W 002°05'0 0.0
2016-Jul-23 11:33N 47°18' W 002°05'0 0.0
2016-Jul-23 10:33N 47°18' W 002°05'0 0.0
2016-Jul-23 09:33N 47°18' W 002°05'0 0.0
2016-Jul-23 08:33N 47°18' W 002°05'0 0.0
2016-Jul-23 07:33N 47°18' W 002°05'0 0.0
2016-Jul-23 06:33N 47°18' W 002°05'0 0.0
2016-Jul-23 04:33N 47°18' W 002°05'0 0.0
2016-Jul-23 03:33N 47°18' W 002°05'0 0.0
2016-Jul-23 02:33N 47°18' W 002°05'0 0.0
2016-Jul-23 01:33N 47°18' W 002°05'0 0.0
2016-Jul-23 00:33N 47°18' W 002°05'0 0.0
2016-Jul-22 23:33N 47°18' W 002°05'0 0.0
2016-Jul-22 22:33N 47°18' W 002°05'0 0.0
2016-Jul-22 21:34N 47°18' W 002°05'0 0.0
2016-Jul-22 20:33N 47°18' W 002°05'0 0.0
2016-Jul-22 19:33N 47°18' W 002°05'0 0.0
2016-Jul-22 18:33N 47°18' W 002°05'0 0.0
2016-Jul-22 17:33N 47°18' W 002°05'0 0.0
2016-Jul-22 16:33N 47°18' W 002°05'0 0.0
2016-Jul-22 15:33N 47°18' W 002°05'0 0.0
2016-Jul-22 14:33N 47°18' W 002°05'0 0.0
2016-Jul-22 13:33N 47°18' W 002°05'0 0.0
2016-Jul-22 12:32N 47°18' W 002°05'0 0.0
2016-Jul-22 11:33N 47°18' W 002°05'0 0.0
2016-Jul-22 10:33N 47°18' W 002°05'0 0.0
2016-Jul-22 09:30N 47°18' W 002°05'0 0.0
2016-Jul-22 08:33N 47°18' W 002°05'0 0.0
2016-Jul-22 07:33N 47°18' W 002°05'0 0.0
2016-Jul-22 05:33N 47°18' W 002°05'0 0.0
2016-Jul-22 04:33N 47°18' W 002°05'0 0.0
2016-Jul-22 03:33N 47°18' W 002°05'0 0.0
2016-Jul-22 02:33N 47°18' W 002°05'0 0.0
2016-Jul-22 01:33N 47°18' W 002°05'0 0.0
2016-Jul-22 00:33N 47°18' W 002°05'0 0.0
2016-Jul-21 23:33N 47°18' W 002°05'0 0.0
2016-Jul-21 22:33N 47°18' W 002°05'0 0.0
2016-Jul-21 21:33N 47°18' W 002°05'0 0.0
2016-Jul-21 20:33N 47°18' W 002°05'0 0.0
2016-Jul-21 19:33N 47°18' W 002°05'0 0.0
2016-Jul-21 18:33N 47°18' W 002°05'0 0.0
2016-Jul-21 17:33N 47°18' W 002°05'0 0.0
2016-Jul-21 16:33N 47°18' W 002°05'0 0.0
2016-Jul-21 15:33N 47°18' W 002°05'0 0.0
2016-Jul-21 14:33N 47°18' W 002°05'0 0.0
2016-Jul-21 13:33N 47°18' W 002°05'0 0.0
2016-Jul-21 12:33N 47°18' W 002°05'0 0.0
2016-Jul-21 11:32N 47°18' W 002°05'0 0.0
2016-Jul-21 10:29N 47°18' W 002°05'0 0.0
2016-Jul-21 09:32N 47°18' W 002°05'0 0.0
2016-Jul-21 08:34N 47°18' W 002°05'0 0.0
2016-Jul-21 07:33N 47°18' W 002°05'0 0.0
2016-Jul-21 06:33N 47°18' W 002°05'0 0.0
2016-Jul-21 05:33N 47°18' W 002°05'0 0.0
2016-Jul-21 04:33N 47°18' W 002°05'0 0.0
2016-Jul-21 03:33N 47°18' W 002°05'0 0.0
2016-Jul-21 02:33N 47°18' W 002°05'0 0.0
2016-Jul-21 01:33N 47°18' W 002°05'0 0.0
2016-Jul-21 00:33N 47°18' W 002°05'0 0.0
2016-Jul-20 23:33N 47°18' W 002°05'0 0.0
2016-Jul-20 22:33N 47°18' W 002°05'0 0.0
2016-Jul-20 21:33N 47°18' W 002°05'0 0.0
2016-Jul-20 20:32N 47°18' W 002°05'0 0.0
2016-Jul-20 19:32N 47°18' W 002°05'0 0.0
2016-Jul-20 18:32N 47°18' W 002°05'0 0.0
2016-Jul-20 17:32N 47°18' W 002°05'0 0.0
2016-Jul-20 16:33N 47°18' W 002°05'0 0.0
2016-Jul-20 15:33N 47°18' W 002°05'0 0.0
2016-Jul-20 14:31N 47°18' W 002°05'0 0.0
2016-Jul-20 13:33N 47°18' W 002°05'0 0.0
2016-Jul-20 12:33N 47°18' W 002°05'0 0.0
2016-Jul-20 11:33N 47°18' W 002°05'0 0.0
2016-Jul-20 10:32N 47°18' W 002°05'0 0.0
2016-Jul-20 09:33N 47°18' W 002°05'0 0.0
2016-Jul-20 08:33N 47°18' W 002°05'0 0.0
2016-Jul-20 07:33N 47°18' W 002°05'0 0.0
2016-Jul-20 06:34N 47°18' W 002°05'0 0.0
2016-Jul-20 05:33N 47°18' W 002°05'0 0.0
2016-Jul-20 04:33N 47°18' W 002°05'0 0.0
2016-Jul-20 03:33N 47°18' W 002°05'0 0.0
2016-Jul-20 02:33N 47°18' W 002°05'0 0.0
2016-Jul-20 01:34N 47°18' W 002°05'0 0.0
2016-Jul-20 00:33N 47°18' W 002°05'0 0.0
2016-Jul-19 23:33N 47°18' W 002°05'0 0.0
2016-Jul-19 22:33N 47°18' W 002°05'0 0.0
2016-Jul-19 21:33N 47°18' W 002°05'0 0.0
2016-Jul-19 20:33N 47°18' W 002°05'0 0.0
2016-Jul-19 19:33N 47°18' W 002°05'0 0.0
2016-Jul-19 18:33N 47°18' W 002°05'0 0.0
2016-Jul-19 17:33N 47°18' W 002°05'0 0.0
2016-Jul-19 16:33N 47°18' W 002°05'0 0.0
2016-Jul-19 15:33N 47°18' W 002°05'0 0.0
2016-Jul-19 14:33N 47°18' W 002°05'0 0.0
2016-Jul-19 13:33N 47°18' W 002°05'0 0.0
2016-Jul-19 12:30N 47°18' W 002°05'0 0.0
2016-Jul-19 11:32N 47°18' W 002°05'0 0.0
2016-Jul-19 10:33N 47°18' W 002°05'0 0.0
2016-Jul-19 09:33N 47°18' W 002°05'0 0.0
2016-Jul-19 08:33N 47°18' W 002°05'0 0.0
2016-Jul-19 07:33N 47°18' W 002°05'0 0.0
2016-Jul-19 04:33N 47°18' W 002°05'0 0.0
2016-Jul-19 03:34N 47°18' W 002°05'0 0.0
2016-Jul-19 02:33N 47°18' W 002°05'0 0.0
2016-Jul-19 01:34N 47°18' W 002°05'0 0.0
2016-Jul-19 00:33N 47°18' W 002°05'0 0.0
2016-Jul-18 23:33N 47°18' W 002°05'0 0.0
2016-Jul-18 22:33N 47°18' W 002°05'0 0.0
2016-Jul-18 21:33N 47°18' W 002°05'0 0.0
2016-Jul-18 20:33N 47°18' W 002°05'0 0.0
2016-Jul-18 19:33N 47°18' W 002°05'0 0.0
2016-Jul-18 18:33N 47°18' W 002°05'0 0.0
2016-Jul-18 17:33N 47°18' W 002°05'0 0.0
2016-Jul-18 16:33N 47°18' W 002°05'0 0.0
2016-Jul-18 15:31N 47°18' W 002°05'0 0.0
2016-Jul-18 14:33N 47°18' W 002°05'  

Dump ship's entire track history